createdAt,value
2022-08-25T00:01:53.036Z,2.90
2022-08-25T00:04:22.350Z,6.10
2022-08-25T00:06:49.548Z,3.80
2022-08-25T00:09:25.427Z,3.85
2022-08-25T00:11:53.181Z,5.75
2022-08-25T00:14:26.341Z,2.60
2022-08-25T00:16:56.106Z,4.10
2022-08-25T00:19:29.474Z,2.78
2022-08-25T00:21:56.463Z,3.42
2022-08-25T00:24:24.754Z,3.05
2022-08-25T00:26:55.133Z,4.70
2022-08-25T00:29:23.490Z,6.40
2022-08-25T00:31:50.063Z,3.97
2022-08-25T00:34:21.043Z,7.65
2022-08-25T00:36:48.267Z,3.63
2022-08-25T00:39:14.823Z,3.33
2022-08-25T00:41:42.906Z,3.78
2022-08-25T00:44:12.481Z,3.70
2022-08-25T00:46:43.194Z,5.75
2022-08-25T00:49:24.680Z,9.27
2022-08-25T00:51:57.473Z,4.65
2022-08-25T00:54:33.935Z,7.80
2022-08-25T00:57:01.754Z,6.60
2022-08-25T00:59:29.178Z,8.68
2022-08-25T01:01:56.614Z,3.92
2022-08-25T01:04:23.844Z,4.00
2022-08-25T01:06:50.413Z,8.23
2022-08-25T01:09:18.811Z,3.85
2022-08-25T01:11:47.226Z,4.60
2022-08-25T01:14:17.167Z,4.13
2022-08-25T01:16:43.956Z,5.10
2022-08-25T01:19:15.436Z,3.30
2022-08-25T01:21:48.954Z,4.22
2022-08-25T01:24:26.233Z,3.13
2022-08-25T01:26:53.029Z,3.03
2022-08-25T01:29:22.600Z,3.42
2022-08-25T01:31:51.148Z,3.55
2022-08-25T01:34:20.271Z,3.17
2022-08-25T01:36:46.867Z,3.20
2022-08-25T01:39:13.912Z,3.13
2022-08-25T01:41:48.615Z,3.33
2022-08-25T01:44:18.514Z,3.38
2022-08-25T01:46:45.220Z,3.47
2022-08-25T01:49:12.085Z,3.10
2022-08-25T01:51:46.892Z,3.55
2022-08-25T01:54:13.509Z,3.03
2022-08-25T01:56:40.140Z,3.63
2022-08-25T01:59:06.712Z,2.97
2022-08-25T02:01:33.744Z,3.15
2022-08-25T02:04:00.402Z,2.70
2022-08-25T02:06:32.226Z,4.38
2022-08-25T02:09:06.752Z,2.95
2022-08-25T02:11:35.501Z,3.95
2022-08-25T02:14:02.026Z,3.10
2022-08-25T02:16:32.484Z,3.10
2022-08-25T02:18:59.685Z,2.92
2022-08-25T02:21:26.887Z,3.60
2022-08-25T02:23:53.955Z,6.45
2022-08-25T02:26:21.137Z,2.65
2022-08-25T02:28:49.568Z,3.50
2022-08-25T02:31:17.381Z,4.00
2022-08-25T02:33:44.622Z,3.50
2022-08-25T02:36:11.370Z,4.10
2022-08-25T02:38:38.456Z,3.08
2022-08-25T02:41:12.596Z,4.68
2022-08-25T02:43:41.549Z,2.95
2022-08-25T02:46:09.631Z,3.38
2022-08-25T02:48:36.818Z,6.18
2022-08-25T02:51:03.775Z,4.00
2022-08-25T02:53:30.518Z,4.22
2022-08-25T02:55:57.191Z,4.00
2022-08-25T02:58:23.820Z,3.40
2022-08-25T03:00:50.470Z,2.88
2022-08-25T03:03:17.481Z,3.50
2022-08-25T03:05:44.022Z,4.40
2022-08-25T03:08:11.635Z,2.95
2022-08-25T03:10:38.979Z,2.85
2022-08-25T03:13:05.565Z,3.00
2022-08-25T03:15:32.517Z,2.78
2022-08-25T03:17:59.999Z,3.53
2022-08-25T03:20:27.971Z,3.88
2022-08-25T03:22:54.543Z,3.10
2022-08-25T03:25:40.128Z,2.50
2022-08-25T03:28:07.922Z,2.92
2022-08-25T03:30:35.353Z,2.70
2022-08-25T03:33:02.260Z,2.60
2022-08-25T03:35:28.849Z,2.42
2022-08-25T03:37:58.437Z,3.10
2022-08-25T03:40:25.578Z,2.60
2022-08-25T03:42:52.494Z,2.85
2022-08-25T03:45:19.303Z,2.97
2022-08-25T03:47:48.989Z,2.50
2022-08-25T03:50:17.849Z,3.38
2022-08-25T03:52:44.784Z,2.63
2022-08-25T03:55:13.827Z,3.50
2022-08-25T03:57:40.640Z,3.00
2022-08-25T04:00:09.934Z,3.00
2022-08-25T04:02:36.512Z,2.63
2022-08-25T04:05:04.318Z,2.55
2022-08-25T04:07:30.838Z,2.70
2022-08-25T04:09:57.377Z,2.63
2022-08-25T04:12:24.204Z,2.40
2022-08-25T04:14:50.911Z,2.78
2022-08-25T04:17:17.949Z,2.55
2022-08-25T04:19:44.872Z,2.63
2022-08-25T04:22:11.421Z,2.95
2022-08-25T04:24:40.199Z,2.92
2022-08-25T04:27:06.840Z,2.70
2022-08-25T04:29:33.633Z,3.20
2022-08-25T04:32:00.268Z,2.78
2022-08-25T04:34:30.689Z,2.70
2022-08-25T04:36:59.726Z,2.75
2022-08-25T04:39:29.925Z,3.00
2022-08-25T04:41:56.614Z,2.80
2022-08-25T04:44:23.198Z,3.00
2022-08-25T04:46:50.123Z,3.08
2022-08-25T04:49:16.670Z,3.20
2022-08-25T04:51:43.778Z,2.70
2022-08-25T04:54:13.654Z,2.80
2022-08-25T04:56:41.379Z,3.20
2022-08-25T04:59:11.687Z,2.85
2022-08-25T05:01:39.616Z,2.67
2022-08-25T05:04:14.693Z,2.90
2022-08-25T05:06:55.384Z,2.55
2022-08-25T05:09:21.913Z,2.90
2022-08-25T05:11:48.742Z,2.90
2022-08-25T05:14:18.243Z,3.13
2022-08-25T05:16:45.233Z,3.08
2022-08-25T05:19:11.849Z,3.03
2022-08-25T05:21:38.663Z,4.03
2022-08-25T05:24:05.642Z,4.00
2022-08-25T05:26:34.550Z,4.00
2022-08-25T05:29:03.870Z,4.00
2022-08-25T05:31:31.386Z,3.75
2022-08-25T05:33:58.731Z,3.90
2022-08-25T05:36:27.519Z,4.05
2022-08-25T05:38:54.372Z,3.70
2022-08-25T05:41:25.580Z,3.63
2022-08-25T05:43:52.121Z,4.40
2022-08-25T05:46:20.178Z,3.60
2022-08-25T05:48:47.128Z,4.07
2022-08-25T05:51:15.092Z,4.47
2022-08-25T05:53:44.069Z,3.83
2022-08-25T05:56:11.425Z,4.13
2022-08-25T05:58:38.061Z,3.10
2022-08-25T06:01:23.494Z,3.67
2022-08-25T06:03:54.389Z,4.72
2022-08-25T06:06:23.172Z,4.18
2022-08-25T06:08:49.908Z,4.38
2022-08-25T06:11:16.858Z,3.72
2022-08-25T06:13:43.647Z,3.67
2022-08-25T06:16:10.348Z,3.88
2022-08-25T06:18:36.986Z,3.13
2022-08-25T06:21:14.423Z,3.55
2022-08-25T06:23:41.385Z,3.85
2022-08-25T06:26:20.591Z,3.55
2022-08-25T06:28:49.511Z,3.30
2022-08-25T06:31:16.216Z,3.65
2022-08-25T06:33:44.142Z,3.30
2022-08-25T06:36:11.071Z,3.92
2022-08-25T06:38:37.739Z,3.30
2022-08-25T06:41:06.679Z,3.25
2022-08-25T06:43:34.531Z,3.38
2022-08-25T06:46:15.580Z,3.15
2022-08-25T06:48:42.518Z,3.15
2022-08-25T06:51:14.134Z,3.08
2022-08-25T06:53:41.290Z,3.15
2022-08-25T06:56:08.470Z,3.30
2022-08-25T06:58:35.852Z,3.38
2022-08-25T07:01:19.699Z,3.40
2022-08-25T07:03:47.604Z,3.70
2022-08-25T07:06:18.450Z,3.42
2022-08-25T07:08:46.430Z,3.47
2022-08-25T07:11:16.208Z,3.50
2022-08-25T07:13:43.086Z,3.35
2022-08-25T07:16:11.435Z,3.38
2022-08-25T07:18:38.781Z,3.35
2022-08-25T07:21:08.881Z,3.83
2022-08-25T07:23:36.353Z,3.40
2022-08-25T07:26:36.852Z,3.58
2022-08-25T07:29:12.137Z,4.00
2022-08-25T07:31:39.686Z,3.50
2022-08-25T07:34:26.042Z,3.88
2022-08-25T07:36:53.811Z,3.58
2022-08-25T07:39:21.949Z,3.55
2022-08-25T07:41:51.995Z,3.55
2022-08-25T07:44:20.672Z,3.45
2022-08-25T07:46:47.396Z,3.47
2022-08-25T07:49:16.628Z,3.65
2022-08-25T07:52:04.086Z,3.30
2022-08-25T07:54:34.623Z,3.28
2022-08-25T07:57:03.417Z,3.83
2022-08-25T07:59:31.039Z,3.45
2022-08-25T08:02:08.425Z,3.30
2022-08-25T08:04:37.661Z,3.60
2022-08-25T08:07:05.284Z,3.38
2022-08-25T08:09:38.567Z,3.28
2022-08-25T08:12:05.983Z,3.08
2022-08-25T08:14:32.562Z,3.03
2022-08-25T08:16:59.728Z,3.40
2022-08-25T08:19:26.399Z,3.85
2022-08-25T08:21:52.946Z,3.25
2022-08-25T08:24:40.786Z,3.30
2022-08-25T08:27:08.514Z,2.90
2022-08-25T08:29:36.025Z,2.92
2022-08-25T08:32:04.395Z,3.25
2022-08-25T08:34:33.143Z,2.65
2022-08-25T08:37:00.538Z,2.72
2022-08-25T08:39:28.502Z,2.75
2022-08-25T08:42:19.405Z,3.40
2022-08-25T08:44:45.964Z,3.15
2022-08-25T08:47:43.491Z,2.90
2022-08-25T08:50:32.870Z,2.80
2022-08-25T08:53:34.078Z,2.97
2022-08-25T08:56:14.368Z,3.20
2022-08-25T08:58:52.469Z,2.70
2022-08-25T09:01:32.353Z,2.88
2022-08-25T09:04:35.107Z,3.40
2022-08-25T09:07:10.053Z,3.10
2022-08-25T09:09:38.573Z,2.92
2022-08-25T09:12:29.105Z,2.55
2022-08-25T09:15:45.936Z,2.92
2022-08-25T09:18:51.497Z,2.97
2022-08-25T09:21:39.798Z,3.00
2022-08-25T09:24:14.471Z,2.78
2022-08-25T09:26:54.047Z,2.75
2022-08-25T09:29:27.092Z,2.95
2022-08-25T09:31:59.628Z,2.90
2022-08-25T09:34:32.696Z,2.83
2022-08-25T09:37:00.646Z,2.67
2022-08-25T09:39:28.042Z,2.90
2022-08-25T09:42:00.520Z,2.67
2022-08-25T09:44:44.759Z,2.78
2022-08-25T09:47:17.947Z,2.60
2022-08-25T09:49:47.811Z,2.70
2022-08-25T09:52:32.067Z,2.83
2022-08-25T09:55:21.590Z,2.55
2022-08-25T09:57:53.016Z,2.60
2022-08-25T10:00:23.222Z,2.65
2022-08-25T10:03:13.526Z,2.58
2022-08-25T10:05:59.975Z,2.58
2022-08-25T10:08:32.638Z,2.30
2022-08-25T10:11:01.855Z,2.55
2022-08-25T10:14:04.674Z,2.40
2022-08-25T10:16:36.266Z,2.47
2022-08-25T10:19:23.540Z,2.47
2022-08-25T10:22:10.811Z,2.53
2022-08-25T10:24:41.028Z,2.10
2022-08-25T10:27:16.464Z,2.17
2022-08-25T10:30:04.490Z,2.20
2022-08-25T10:32:50.566Z,2.10
2022-08-25T10:35:28.978Z,2.50
2022-08-25T10:37:58.251Z,2.30
2022-08-25T10:40:37.265Z,2.15
2022-08-25T10:43:17.307Z,2.25
2022-08-25T10:45:51.354Z,2.50
2022-08-25T10:49:07.116Z,1.95
2022-08-25T10:51:40.102Z,2.40
2022-08-25T10:54:12.911Z,2.40
2022-08-25T10:56:43.437Z,2.30
2022-08-25T10:59:28.472Z,2.30
2022-08-25T11:02:38.999Z,2.50
2022-08-25T11:05:11.110Z,2.03
2022-08-25T11:07:45.910Z,2.08
2022-08-25T11:10:26.141Z,1.90
2022-08-25T11:13:03.863Z,1.92
2022-08-25T11:16:00.183Z,1.65
2022-08-25T11:18:32.903Z,1.90
2022-08-25T11:21:12.903Z,2.00
2022-08-25T11:24:07.029Z,1.73
2022-08-25T11:26:37.925Z,2.20
2022-08-25T11:29:14.650Z,1.85
2022-08-25T11:31:54.042Z,1.70
2022-08-25T11:34:22.458Z,1.75
2022-08-25T11:36:57.680Z,1.45
2022-08-25T11:39:41.127Z,1.90
2022-08-25T11:42:26.194Z,1.95
2022-08-25T11:45:29.193Z,1.75
2022-08-25T11:48:13.366Z,1.77
2022-08-25T11:50:57.746Z,1.48
2022-08-25T11:53:28.384Z,1.73
2022-08-25T11:56:03.115Z,1.60
2022-08-25T11:58:36.925Z,1.85
2022-08-25T12:01:06.312Z,1.60
2022-08-25T12:03:32.908Z,1.75
2022-08-25T12:06:25.237Z,1.90
2022-08-25T12:08:57.654Z,1.70
2022-08-25T12:11:48.238Z,1.70
2022-08-25T12:14:24.601Z,1.77
2022-08-25T12:16:55.371Z,1.80
2022-08-25T12:19:58.970Z,1.58
2022-08-25T12:22:27.093Z,1.55
2022-08-25T12:24:59.699Z,1.83
2022-08-25T12:27:38.815Z,1.92
2022-08-25T12:30:26.431Z,1.85
2022-08-25T12:33:09.447Z,1.70
2022-08-25T12:36:11.298Z,1.55
2022-08-25T12:38:52.135Z,1.63
2022-08-25T12:41:26.349Z,1.60
2022-08-25T12:44:08.913Z,1.65
2022-08-25T12:46:39.565Z,1.70
2022-08-25T12:49:33.491Z,1.80
2022-08-25T12:52:06.829Z,1.70
2022-08-25T12:54:49.042Z,2.10
2022-08-25T12:57:18.764Z,1.55
2022-08-25T12:59:56.076Z,1.80
2022-08-25T13:02:53.652Z,1.77
2022-08-25T13:05:42.509Z,1.48
2022-08-25T13:08:24.329Z,1.67
2022-08-25T13:11:09.663Z,1.65
2022-08-25T13:13:58.111Z,1.90
2022-08-25T13:16:30.214Z,2.05
2022-08-25T13:19:01.843Z,1.80
2022-08-25T13:21:30.928Z,1.90
2022-08-25T13:24:05.950Z,1.70
2022-08-25T13:26:37.609Z,1.80
2022-08-25T13:29:22.946Z,1.63
2022-08-25T13:31:58.614Z,1.70
2022-08-25T13:34:35.007Z,1.88
2022-08-25T13:37:30.475Z,1.83
2022-08-25T13:40:24.784Z,1.80
2022-08-25T13:42:59.892Z,1.73
2022-08-25T13:45:42.504Z,1.60
2022-08-25T13:48:21.223Z,1.67
2022-08-25T13:50:56.526Z,1.85
2022-08-25T13:53:36.098Z,1.70
2022-08-25T13:56:03.981Z,1.58
2022-08-25T13:58:38.950Z,1.95
2022-08-25T14:01:49.295Z,1.73
2022-08-25T14:04:24.548Z,1.60
2022-08-25T14:07:21.000Z,1.58
2022-08-25T14:09:54.778Z,1.90
2022-08-25T14:12:33.418Z,1.38
2022-08-25T14:15:04.884Z,1.75
2022-08-25T14:17:38.258Z,2.00
2022-08-25T14:20:17.519Z,1.58
2022-08-25T14:22:44.102Z,1.70
2022-08-25T14:25:11.358Z,1.70
2022-08-25T14:28:03.715Z,2.50
2022-08-25T14:30:30.165Z,1.95
2022-08-25T14:32:57.125Z,1.90
2022-08-25T14:35:23.731Z,1.67
2022-08-25T14:37:50.409Z,1.75
2022-08-25T14:40:20.040Z,1.90
2022-08-25T14:42:47.836Z,1.50
2022-08-25T14:45:19.117Z,1.70
2022-08-25T14:47:49.666Z,1.92
2022-08-25T14:50:20.104Z,1.77
2022-08-25T14:52:51.903Z,1.90
2022-08-25T14:55:21.121Z,1.60
2022-08-25T14:57:59.350Z,1.60
2022-08-25T15:00:26.253Z,1.63
2022-08-25T15:02:53.548Z,1.65
2022-08-25T15:05:28.495Z,1.70
2022-08-25T15:08:14.215Z,1.65
2022-08-25T15:10:42.084Z,1.90
2022-08-25T15:13:10.643Z,1.73
2022-08-25T15:15:52.605Z,1.70
2022-08-25T15:18:21.683Z,1.58
2022-08-25T15:20:49.949Z,1.65
2022-08-25T15:23:18.689Z,1.65
2022-08-25T15:25:48.084Z,1.88
2022-08-25T15:28:17.292Z,1.52
2022-08-25T15:30:45.642Z,1.88
2022-08-25T15:33:13.568Z,1.50
2022-08-25T15:35:41.140Z,1.85
2022-08-25T15:38:08.510Z,1.80
2022-08-25T15:40:37.601Z,1.75
2022-08-25T15:43:05.309Z,1.90
2022-08-25T15:45:32.251Z,2.00
2022-08-25T15:47:59.661Z,1.50
2022-08-25T15:50:26.951Z,1.70
2022-08-25T15:52:53.571Z,1.63
2022-08-25T15:55:20.933Z,1.70
2022-08-25T15:57:49.717Z,1.80
2022-08-25T16:00:18.123Z,1.55
2022-08-25T16:02:45.392Z,1.70
2022-08-25T16:05:13.771Z,1.70
2022-08-25T16:07:43.190Z,1.50
2022-08-25T16:10:12.576Z,1.70
2022-08-25T16:12:40.089Z,2.00
2022-08-25T16:15:10.148Z,1.85
2022-08-25T16:17:40.545Z,1.73
2022-08-25T16:20:08.055Z,1.85
2022-08-25T16:22:40.938Z,1.80
2022-08-25T16:25:08.029Z,1.85
2022-08-25T16:27:38.914Z,1.60
2022-08-25T16:30:08.697Z,1.60
2022-08-25T16:32:35.695Z,1.70
2022-08-25T16:35:03.422Z,1.67
2022-08-25T16:37:30.201Z,1.70
2022-08-25T16:39:57.476Z,1.90
2022-08-25T16:42:24.360Z,1.85
2022-08-25T16:44:53.915Z,1.50
2022-08-25T16:47:24.985Z,1.73
2022-08-25T16:49:51.982Z,1.40
2022-08-25T16:52:38.251Z,1.85
2022-08-25T16:55:13.810Z,1.40
2022-08-25T16:57:44.191Z,1.63
2022-08-25T17:00:13.804Z,1.90
2022-08-25T17:02:41.624Z,1.60
2022-08-25T17:05:10.167Z,2.05
2022-08-25T17:07:37.389Z,1.60
2022-08-25T17:10:05.369Z,1.90
2022-08-25T17:12:35.906Z,1.58
2022-08-25T17:15:02.714Z,1.60
2022-08-25T17:17:36.017Z,1.75
2022-08-25T17:20:05.682Z,1.80
2022-08-25T17:22:32.446Z,1.77
2022-08-25T17:25:01.192Z,1.65
2022-08-25T17:27:28.381Z,1.80
2022-08-25T17:29:57.460Z,2.30
2022-08-25T17:32:28.957Z,2.13
2022-08-25T17:34:57.455Z,2.47
2022-08-25T17:37:24.624Z,3.30
2022-08-25T17:39:57.465Z,2.60
2022-08-25T17:42:30.322Z,3.08
2022-08-25T17:44:57.957Z,3.33
2022-08-25T17:47:24.857Z,3.60
2022-08-25T17:49:55.236Z,3.05
2022-08-25T17:52:25.396Z,3.70
2022-08-25T17:54:54.914Z,2.88
2022-08-25T17:57:26.650Z,3.30
2022-08-25T17:59:56.601Z,2.97
2022-08-25T18:02:23.854Z,2.67
2022-08-25T18:04:57.733Z,3.10
2022-08-25T18:07:25.314Z,2.70
2022-08-25T18:09:54.073Z,3.15
2022-08-25T18:12:21.626Z,3.20
2022-08-25T18:14:54.002Z,2.67
2022-08-25T18:17:22.026Z,2.90
2022-08-25T18:19:49.849Z,3.25
2022-08-25T18:22:17.144Z,3.10
2022-08-25T18:24:44.537Z,3.33
2022-08-25T18:27:14.747Z,3.30
2022-08-25T18:29:47.313Z,3.25
2022-08-25T18:32:14.111Z,3.22
2022-08-25T18:34:40.772Z,3.33
2022-08-25T18:37:25.889Z,3.10
2022-08-25T18:40:13.494Z,3.00
2022-08-25T18:42:40.906Z,3.67
2022-08-25T18:45:08.970Z,3.17
2022-08-25T18:47:39.810Z,3.35
2022-08-25T18:50:10.263Z,3.30
2022-08-25T18:52:37.145Z,3.28
2022-08-25T18:55:04.301Z,3.72
2022-08-25T18:57:31.441Z,3.70
2022-08-25T18:59:58.111Z,3.47
2022-08-25T19:02:24.794Z,3.38
2022-08-25T19:04:52.754Z,4.50
2022-08-25T19:07:19.694Z,4.97
2022-08-25T19:09:46.452Z,3.22
2022-08-25T19:12:22.478Z,5.07
2022-08-25T19:14:50.448Z,4.68
2022-08-25T19:17:17.294Z,4.00
2022-08-25T19:19:44.721Z,5.82
2022-08-25T19:22:31.679Z,6.68
2022-08-25T19:24:58.940Z,4.13
2022-08-25T19:27:25.484Z,7.35
2022-08-25T19:29:52.313Z,6.13
2022-08-25T19:32:19.312Z,8.02
2022-08-25T19:34:47.747Z,6.57
2022-08-25T19:37:18.407Z,7.72
2022-08-25T19:39:52.975Z,8.23
2022-08-25T19:42:34.979Z,4.35
2022-08-25T19:45:08.678Z,5.22
2022-08-25T19:47:35.446Z,12.13
2022-08-25T19:50:08.520Z,10.10
2022-08-25T19:52:37.897Z,6.72
2022-08-25T19:55:05.013Z,7.28
2022-08-25T19:57:42.502Z,10.68
2022-08-25T20:00:23.016Z,9.40
2022-08-25T20:02:51.060Z,14.27
2022-08-25T20:05:23.909Z,22.02
2022-08-25T20:07:52.658Z,20.25
2022-08-25T20:10:22.004Z,11.38
2022-08-25T20:12:48.638Z,17.73
2022-08-25T20:15:16.532Z,24.50
2022-08-25T20:17:43.970Z,9.05
2022-08-25T20:20:15.120Z,18.92
2022-08-25T20:22:42.867Z,17.85
2022-08-25T20:25:23.242Z,24.17
2022-08-25T20:27:54.732Z,21.33
2022-08-25T20:30:27.921Z,17.65
2022-08-25T20:32:56.490Z,10.10
2022-08-25T20:35:26.637Z,8.48
2022-08-25T20:37:55.135Z,6.95
2022-08-25T20:40:25.743Z,13.23
2022-08-25T20:42:56.371Z,13.75
2022-08-25T20:45:23.486Z,15.10
2022-08-25T20:47:50.280Z,14.82
2022-08-25T20:50:18.347Z,11.05
2022-08-25T20:52:44.973Z,18.63
2022-08-25T20:55:12.516Z,13.60
2022-08-25T20:57:39.744Z,11.32
2022-08-25T21:00:07.816Z,8.73
2022-08-25T21:02:34.845Z,11.80
2022-08-25T21:05:02.619Z,13.95
2022-08-25T21:07:29.405Z,9.77
2022-08-25T21:09:58.547Z,7.32
2022-08-25T21:12:25.212Z,9.73
2022-08-25T21:14:53.904Z,12.38
2022-08-25T21:17:20.519Z,8.45
2022-08-25T21:22:15.913Z,10.77
2022-08-25T21:24:42.495Z,11.07
2022-08-25T21:27:11.249Z,10.77
2022-08-25T21:29:38.650Z,8.63
2022-08-25T21:32:11.694Z,9.07
2022-08-25T21:34:38.215Z,7.32
2022-08-25T21:37:05.418Z,6.25
2022-08-25T21:39:33.171Z,11.38
2022-08-25T21:42:00.657Z,5.20
2022-08-25T21:44:28.638Z,5.80
2022-08-25T21:46:55.278Z,8.25
2022-08-25T21:49:23.342Z,6.18
2022-08-25T21:51:59.149Z,8.40
2022-08-25T21:54:26.327Z,5.10
2022-08-25T21:56:55.953Z,7.65
2022-08-25T21:59:25.282Z,6.53
2022-08-25T22:01:56.533Z,5.00
2022-08-25T22:04:23.146Z,6.65
2022-08-25T22:06:50.502Z,6.60
2022-08-25T22:09:17.456Z,6.30
2022-08-25T22:11:46.004Z,6.75
2022-08-25T22:14:14.184Z,6.43
2022-08-25T22:16:41.009Z,4.65
2022-08-25T22:19:10.561Z,4.15
2022-08-25T22:21:37.707Z,4.10
2022-08-25T22:24:05.749Z,3.80
2022-08-25T22:26:34.196Z,4.78
2022-08-25T22:29:01.151Z,4.40
2022-08-25T22:31:28.131Z,4.95
2022-08-25T22:33:57.752Z,5.07
2022-08-25T22:36:30.744Z,5.30
2022-08-25T22:38:57.803Z,3.53
2022-08-25T22:41:27.132Z,4.28
2022-08-25T22:43:55.597Z,3.97
2022-08-25T22:46:23.534Z,4.65
2022-08-25T22:48:51.521Z,3.50
2022-08-25T22:51:24.485Z,3.55
2022-08-25T22:53:51.767Z,4.18
2022-08-25T22:56:29.691Z,4.03
2022-08-25T22:59:02.655Z,4.07
2022-08-25T23:01:29.392Z,3.72
2022-08-25T23:03:55.950Z,3.05
2022-08-25T23:06:25.095Z,3.35
2022-08-25T23:08:53.771Z,3.00
2022-08-25T23:11:21.915Z,2.60
2022-08-25T23:13:49.661Z,3.63
2022-08-25T23:16:17.268Z,2.47
2022-08-25T23:18:45.030Z,3.30
2022-08-25T23:21:35.054Z,2.65
2022-08-25T23:24:02.118Z,2.80
2022-08-25T23:26:29.429Z,3.00
2022-08-25T23:28:56.247Z,2.25
2022-08-25T23:31:22.778Z,2.60
2022-08-25T23:33:50.942Z,2.42
2022-08-25T23:36:17.918Z,2.17
2022-08-25T23:38:51.741Z,2.38
2022-08-25T23:41:22.552Z,2.17
2022-08-25T23:43:49.610Z,2.00
2022-08-25T23:46:18.381Z,2.00
2022-08-25T23:48:45.007Z,2.15
2022-08-25T23:51:12.639Z,2.30
2022-08-25T23:53:39.403Z,3.00
2022-08-25T23:56:06.396Z,2.00
2022-08-25T23:58:33.050Z,2.22
